Time,TemperatureF,DewpointF,PressureIn,WindDirection,WindDirectionDegrees,WindSpeedMPH,WindSpeedGustMPH,Humidity,HourlyPrecipIn,Conditions,Clouds,dailyrainin,SoftwareType,DateUTC
2013-07-24 00:11:00,61.0,53.0,-100.00,NNE,15,1.0,4.0,75,-99.99,,,-99.99,,2013-07-24 05:11:00,
2013-07-24 00:22:00,61.0,53.0,-100.00,NNE,15,1.0,4.0,75,-99.99,,,-99.99,,2013-07-24 05:22:00,
2013-07-24 00:43:00,59.0,54.0,-100.00,WSW,255,1.0,2.0,84,-99.99,,,-99.99,,2013-07-24 05:43:00,
2013-07-24 00:52:00,59.0,54.0,-100.00,WSW,255,1.0,2.0,84,-99.99,,,-99.99,,2013-07-24 05:52:00,
2013-07-24 01:24:00,58.0,54.0,-100.00,WNW,300,0.0,1.0,87,-99.99,,,-99.99,,2013-07-24 06:24:00,
2013-07-24 01:43:00,56.0,52.0,-100.00,ENE,75,3.0,4.0,87,-99.99,,,-99.99,,2013-07-24 06:43:00,
2013-07-24 01:53:00,56.0,52.0,-100.00,ENE,75,3.0,4.0,87,-99.99,,,-99.99,,2013-07-24 06:53:00,
2013-07-24 02:22:00,57.0,53.0,-100.00,East,80,4.0,7.0,85,-99.99,,,-99.99,,2013-07-24 07:22:00,
2013-07-24 02:53:00,56.0,53.0,-100.00,East,100,2.0,4.0,88,-99.99,,,-99.99,,2013-07-24 07:53:00,
2013-07-24 03:02:00,56.0,53.0,-100.00,East,100,2.0,4.0,88,-99.99,,,-99.99,,2013-07-24 08:02:00,
2013-07-24 03:12:00,56.0,53.0,-100.00,East,100,2.0,4.0,88,-99.99,,,-99.99,,2013-07-24 08:12:00,
2013-07-24 04:02:00,55.0,53.0,-100.00,North,355,1.0,2.0,92,-99.99,,,-99.99,,2013-07-24 09:02:00,
2013-07-24 04:22:00,55.0,53.0,-100.00,NNE,30,1.0,2.0,93,-99.99,,,-99.99,,2013-07-24 09:22:00,
2013-07-24 04:53:00,54.0,52.0,-100.00,NNW,340,2.0,4.0,93,-99.99,,,-99.99,,2013-07-24 09:53:00,
2013-07-24 05:02:00,55.0,54.0,-100.00,North,5,4.0,5.0,94,-99.99,,,-99.99,,2013-07-24 10:02:00,
2013-07-24 05:22:00,55.0,53.0,-100.00,North,10,1.0,4.0,92,-99.99,,,-99.99,,2013-07-24 10:22:00,
2013-07-24 05:33:00,54.0,52.0,-100.00,WNW,300,1.0,2.0,92,-99.99,,,-99.99,,2013-07-24 10:33:00,
2013-07-24 05:43:00,54.0,52.0,-100.00,WSW,250,1.0,2.0,94,-99.99,,,-99.99,,2013-07-24 10:43:00,
2013-07-24 05:53:00,54.0,52.0,-100.00,WSW,250,1.0,2.0,94,-99.99,,,-99.99,,2013-07-24 10:53:00,
2013-07-24 06:12:00,52.0,51.0,-100.00,WNW,290,2.0,3.0,95,-99.99,,,-99.99,,2013-07-24 11:12:00,
2013-07-24 06:22:00,52.0,51.0,-100.00,WNW,290,2.0,3.0,95,-99.99,,,-99.99,,2013-07-24 11:22:00,
2013-07-24 06:43:00,52.0,51.0,-100.00,WNW,295,1.0,3.0,94,-99.99,,,-99.99,,2013-07-24 11:43:00,
2013-07-24 06:52:00,52.0,51.0,-100.00,WNW,295,1.0,3.0,94,-99.99,,,-99.99,,2013-07-24 11:52:00,
2013-07-24 07:22:00,54.0,51.0,-100.00,West,275,4.0,5.0,92,-99.99,,,-99.99,,2013-07-24 12:22:00,
2013-07-24 07:42:00,57.0,54.0,-100.00,NW,320,1.0,3.0,87,-99.99,,,-99.99,,2013-07-24 12:42:00,
2013-07-24 07:52:00,57.0,54.0,-100.00,NW,320,1.0,3.0,87,-99.99,,,-99.99,,2013-07-24 12:52:00,
2013-07-24 08:22:00,62.0,55.0,-100.00,NNW,335,2.0,3.0,77,-99.99,,,-99.99,,2013-07-24 13:22:00,
2013-07-24 08:43:00,66.0,55.0,-100.00,NNE,15,1.0,4.0,69,-99.99,,,-99.99,,2013-07-24 13:43:00,
2013-07-24 08:53:00,66.0,55.0,-100.00,NNE,15,1.0,4.0,69,-99.99,,,-99.99,,2013-07-24 13:53:00,
2013-07-24 09:22:00,65.0,53.0,-100.00,East,90,5.0,10.0,64,-99.99,,,-99.99,,2013-07-24 14:22:00,
2013-07-24 09:43:00,67.0,52.0,-100.00,East,95,7.0,12.0,59,-99.99,,,-99.99,,2013-07-24 14:43:00,
2013-07-24 09:55:00,67.0,52.0,-100.00,East,95,7.0,12.0,59,-99.99,,,-99.99,,2013-07-24 14:55:00,
2013-07-24 10:22:00,67.0,52.0,-100.00,NE,40,4.0,10.0,59,-99.99,,,-99.99,,2013-07-24 15:22:00,
2013-07-24 10:53:00,68.0,52.0,-100.00,NNW,335,5.0,11.0,56,-99.99,,,-99.99,,2013-07-24 15:53:00,
2013-07-24 11:22:00,70.0,49.0,-100.00,NNW,335,4.0,11.0,48,-99.99,,,-99.99,,2013-07-24 16:22:00,
2013-07-24 11:32:00,71.0,52.0,-100.00,ENE,60,4.0,8.0,51,-99.99,,,-99.99,,2013-07-24 16:32:00,
2013-07-24 11:43:00,70.0,52.0,-100.00,NE,55,3.0,11.0,52,-99.99,,,-99.99,,2013-07-24 16:43:00,
2013-07-24 11:53:00,70.0,52.0,-100.00,NE,55,3.0,11.0,52,-99.99,,,-99.99,,2013-07-24 16:53:00,
2013-07-24 12:12:00,71.0,52.0,-100.00,NNE,30,6.0,11.0,51,-99.99,,,-99.99,,2013-07-24 17:12:00,
2013-07-24 12:22:00,71.0,52.0,-100.00,NNE,30,6.0,11.0,51,-99.99,,,-99.99,,2013-07-24 17:22:00,
2013-07-24 12:43:00,72.0,53.0,-100.00,NE,45,4.0,9.0,52,-99.99,,,-99.99,,2013-07-24 17:43:00,
2013-07-24 12:53:00,72.0,53.0,-100.00,NE,45,4.0,9.0,52,-99.99,,,-99.99,,2013-07-24 17:53:00,
2013-07-24 13:12:00,72.0,51.0,-100.00,NW,315,6.0,14.0,48,-99.99,,,-99.99,,2013-07-24 18:12:00,
2013-07-24 13:22:00,72.0,51.0,-100.00,NW,315,6.0,14.0,48,-99.99,,,-99.99,,2013-07-24 18:22:00,
2013-07-24 13:33:00,74.0,52.0,-100.00,North,5,4.0,11.0,46,-99.99,,,-99.99,,2013-07-24 18:33:00,
2013-07-24 13:43:00,73.0,52.0,-100.00,NE,50,6.0,14.0,47,-99.99,,,-99.99,,2013-07-24 18:43:00,
2013-07-24 13:52:00,73.0,52.0,-100.00,NE,50,6.0,14.0,47,-99.99,,,-99.99,,2013-07-24 18:52:00,
2013-07-24 14:12:00,72.0,50.0,-100.00,ENE,65,6.0,10.0,47,-99.99,,,-99.99,,2013-07-24 19:12:00,
2013-07-24 14:22:00,72.0,50.0,-100.00,ENE,65,6.0,10.0,47,-99.99,,,-99.99,,2013-07-24 19:22:00,
2013-07-24 14:32:00,72.0,50.0,-100.00,East,95,4.0,14.0,46,-99.99,,,-99.99,,2013-07-24 19:32:00,
2013-07-24 14:43:00,73.0,49.0,-100.00,NNW,335,4.0,8.0,43,-99.99,,,-99.99,,2013-07-24 19:43:00,
2013-07-24 14:53:00,73.0,49.0,-100.00,NNW,335,4.0,8.0,43,-99.99,,,-99.99,,2013-07-24 19:53:00,
2013-07-24 15:13:00,74.0,50.0,-100.00,ENE,70,4.0,10.0,44,-99.99,,,-99.99,,2013-07-24 20:13:00,
2013-07-24 15:23:00,74.0,50.0,-100.00,ENE,70,4.0,10.0,44,-99.99,,,-99.99,,2013-07-24 20:23:00,
2013-07-24 15:32:00,75.0,48.0,-100.00,NW,325,9.0,13.0,39,-99.99,,,-99.99,,2013-07-24 20:32:00,
2013-07-24 15:43:00,73.0,47.0,-100.00,SE,125,5.0,9.0,40,-99.99,,,-99.99,,2013-07-24 20:43:00,
2013-07-24 15:53:00,73.0,47.0,-100.00,SE,125,5.0,9.0,40,-99.99,,,-99.99,,2013-07-24 20:53:00,
2013-07-24 16:22:00,75.0,49.0,-100.00,NNE,15,5.0,8.0,40,-99.99,,,-99.99,,2013-07-24 21:22:00,
2013-07-24 16:53:00,74.0,50.0,-100.00,ENE,70,5.0,9.0,43,-99.99,,,-99.99,,2013-07-24 21:53:00,
2013-07-24 17:12:00,75.0,50.0,-100.00,NW,305,6.0,9.0,42,-99.99,,,-99.99,,2013-07-24 22:12:00,
2013-07-24 17:22:00,75.0,50.0,-100.00,NW,305,6.0,9.0,42,-99.99,,,-99.99,,2013-07-24 22:22:00,
2013-07-24 17:32:00,74.0,51.0,-100.00,NE,50,5.0,10.0,44,-99.99,,,-99.99,,2013-07-24 22:32:00,
2013-07-24 17:43:00,75.0,50.0,-100.00,NNE,15,6.0,10.0,42,-99.99,,,-99.99,,2013-07-24 22:43:00,
2013-07-24 17:53:00,75.0,50.0,-100.00,NNE,15,6.0,10.0,42,-99.99,,,-99.99,,2013-07-24 22:53:00,
2013-07-24 18:22:00,75.0,51.0,-100.00,NNW,345,3.0,10.0,42,-99.99,,,-99.99,,2013-07-24 23:22:00,
2013-07-24 18:43:00,76.0,51.0,-100.00,East,90,1.0,5.0,42,-99.99,,,-99.99,,2013-07-24 23:43:00,
2013-07-24 18:52:00,76.0,51.0,-100.00,East,90,1.0,5.0,42,-99.99,,,-99.99,,2013-07-24 23:52:00,
2013-07-24 19:02:00,72.0,51.0,-100.00,ESE,105,5.0,9.0,48,-99.99,,,-99.99,,2013-07-25 00:02:00,
2013-07-24 19:12:00,72.0,52.0,-100.00,ENE,65,4.0,8.0,50,-99.99,,,-99.99,,2013-07-25 00:12:00,
2013-07-24 19:22:00,72.0,52.0,-100.00,ENE,65,4.0,8.0,50,-99.99,,,-99.99,,2013-07-25 00:22:00,
2013-07-24 19:53:00,71.0,52.0,-100.00,ENE,75,4.0,5.0,52,-99.99,,,-99.99,,2013-07-25 00:53:00,
2013-07-24 20:22:00,68.0,52.0,-100.00,ENE,75,3.0,4.0,56,-99.99,,,-99.99,,2013-07-25 01:22:00,
2013-07-24 20:43:00,66.0,52.0,-100.00,ENE,70,4.0,4.0,60,-99.99,,,-99.99,,2013-07-25 01:43:00,
2013-07-24 20:53:00,66.0,52.0,-100.00,ENE,70,4.0,4.0,60,-99.99,,,-99.99,,2013-07-25 01:53:00,
2013-07-24 21:02:00,65.0,52.0,-100.00,ENE,75,3.0,4.0,62,-99.99,,,-99.99,,2013-07-25 02:02:00,
2013-07-24 21:12:00,65.0,52.0,-100.00,East,90,3.0,4.0,64,-99.99,,,-99.99,,2013-07-25 02:12:00,
2013-07-24 21:22:00,65.0,52.0,-100.00,East,90,3.0,4.0,64,-99.99,,,-99.99,,2013-07-25 02:22:00,
2013-07-24 21:33:00,64.0,52.0,-100.00,East,80,2.0,3.0,65,-99.99,,,-99.99,,2013-07-25 02:33:00,
2013-07-24 21:43:00,64.0,52.0,-100.00,ENE,75,3.0,4.0,65,-99.99,,,-99.99,,2013-07-25 02:43:00,
2013-07-24 21:53:00,64.0,52.0,-100.00,ENE,75,3.0,4.0,65,-99.99,,,-99.99,,2013-07-25 02:53:00,
2013-07-24 22:02:00,64.0,52.0,-100.00,East,85,2.0,4.0,64,-99.99,,,-99.99,,2013-07-25 03:02:00,
2013-07-24 22:16:00,64.0,52.0,-100.00,East,85,2.0,4.0,64,-99.99,,,-99.99,,2013-07-25 03:16:00,
2013-07-24 22:24:00,62.0,52.0,-100.00,SE,125,1.0,1.0,70,-99.99,,,-99.99,,2013-07-25 03:24:00,
2013-07-24 22:44:00,61.0,52.0,-100.00,SE,125,0.0,1.0,71,-99.99,,,-99.99,,2013-07-25 03:44:00,
2013-07-24 22:52:00,61.0,52.0,-100.00,SE,125,0.0,1.0,71,-99.99,,,-99.99,,2013-07-25 03:52:00,
2013-07-24 23:02:00,61.0,52.0,-100.00,SE,125,0.0,1.0,71,-99.99,,,-99.99,,2013-07-25 04:02:00,
2013-07-24 23:12:00,60.0,52.0,-100.00,NNW,335,0.0,1.0,76,-99.99,,,-99.99,,2013-07-25 04:12:00,
2013-07-24 23:22:00,60.0,52.0,-100.00,NNW,335,0.0,1.0,76,-99.99,,,-99.99,,2013-07-25 04:22:00,
2013-07-24 23:32:00,60.0,53.0,-100.00,NW,310,1.0,1.0,79,-99.99,,,-99.99,,2013-07-25 04:32:00,
2013-07-24 23:43:00,59.0,52.0,-100.00,NNW,330,0.0,1.0,79,-99.99,,,-99.99,,2013-07-25 04:43:00,
2013-07-24 23:53:00,59.0,52.0,-100.00,NNW,330,0.0,1.0,79,-99.99,,,-99.99,,2013-07-25 04:53:00,